Time;durP1;ratioP1;P1;durP2;ratioP2;P2;SDS_P1;SDS_P2;PMS_P1;PMS_P2;Temp;Humidity;BMP_temperature;BMP_pressure;BME280_temperature;BME280_humidity;BME280_pressure;Samples;Min_cycle;Max_cycle;Signal;HPM_P1;HPM_P2
2023/07/19 00:00:25;;;;;;;4.10;2.22;;;18.20;99.90;;;;;;2090016;28;20823;-71
2023/07/19 00:01:25;;;;;;;3.17;2.13;;;18.30;99.90;;;;;;2090640;28;20017;-71
2023/07/19 00:02:26;;;;;;;4.30;2.30;;;18.30;99.90;;;;;;2092159;28;20059;-71
2023/07/19 00:03:27;;;;;;;2.60;2.33;;;18.30;99.90;;;;;;2090530;28;20025;-71
2023/07/19 00:04:27;;;;;;;3.17;2.20;;;18.30;99.90;;;;;;2090587;28;20025;-71
2023/07/19 00:05:28;;;;;;;3.85;2.50;;;18.30;99.90;;;;;;2093343;28;20096;-71
2023/07/19 00:06:29;;;;;;;4.88;2.40;;;18.30;99.90;;;;;;2091381;28;20350;-71
2023/07/19 00:07:29;;;;;;;2.85;2.55;;;18.30;99.90;;;;;;2090352;28;20211;-71
2023/07/19 00:08:33;;;;;;;2.50;2.30;;;18.30;99.90;;;;;;2091585;28;20061;-71
2023/07/19 00:09:34;;;;;;;3.83;2.53;;;18.30;99.90;;;;;;2091462;28;20043;-71
2023/07/19 00:10:34;;;;;;;2.40;2.20;;;18.30;99.90;;;;;;2090142;28;20087;-71
2023/07/19 00:11:35;;;;;;;3.38;3.05;;;18.20;99.90;;;;;;2092089;28;20496;-71
2023/07/19 00:12:35;;;;;;;2.92;2.53;;;18.30;99.90;;;;;;2091639;28;20060;-71
2023/07/19 00:13:36;;;;;;;5.05;2.90;;;18.30;99.90;;;;;;2090853;28;20028;-71
2023/07/19 00:14:36;;;;;;;2.97;2.50;;;18.30;99.90;;;;;;2093319;28;20052;-71
2023/07/19 00:15:37;;;;;;;4.47;2.45;;;18.30;99.90;;;;;;2092509;28;20096;-71
2023/07/19 00:16:37;;;;;;;2.53;2.28;;;18.30;99.90;;;;;;2093309;28;20016;-71
2023/07/19 00:17:38;;;;;;;5.25;2.72;;;18.20;99.90;;;;;;2093001;28;20388;-71
2023/07/19 00:18:39;;;;;;;4.95;2.38;;;18.30;99.90;;;;;;2092835;28;20096;-71
2023/07/19 00:19:42;;;;;;;2.55;2.17;;;18.30;99.90;;;;;;2093118;28;20031;-71
2023/07/19 00:20:43;;;;;;;2.70;2.42;;;18.30;99.90;;;;;;2090805;28;20770;-71
2023/07/19 00:21:43;;;;;;;3.08;2.17;;;18.30;99.90;;;;;;2091923;28;20644;-71
2023/07/19 00:22:44;;;;;;;3.45;2.67;;;18.30;99.90;;;;;;2094545;28;20086;-71
2023/07/19 00:23:44;;;;;;;3.67;2.85;;;18.30;99.90;;;;;;2094664;28;20017;-71
2023/07/19 00:24:45;;;;;;;3.45;2.15;;;18.30;99.90;;;;;;2091877;28;20538;-71
2023/07/19 00:25:45;;;;;;;3.25;2.70;;;18.30;99.90;;;;;;2091315;28;20020;-71
2023/07/19 00:26:48;;;;;;;3.42;2.17;;;18.30;99.90;;;;;;2093009;28;20034;-71
2023/07/19 00:27:49;;;;;;;2.78;2.30;;;18.30;99.90;;;;;;2094322;28;20025;-71
2023/07/19 00:28:50;;;;;;;3.25;2.50;;;18.30;99.90;;;;;;2091361;28;20036;-71
2023/07/19 00:29:50;;;;;;;3.55;2.40;;;18.20;99.90;;;;;;2091837;28;20039;-71
2023/07/19 00:31:04;;;;;;;4.05;2.17;;;18.20;99.90;;;;;;2091978;28;20029;-71
2023/07/19 00:32:05;;;;;;;4.60;2.63;;;18.20;99.90;;;;;;2092264;28;20043;-71
2023/07/19 00:33:06;;;;;;;2.40;2.20;;;18.20;99.90;;;;;;2090173;28;20043;-71
2023/07/19 00:34:07;;;;;;;3.03;2.38;;;18.20;99.90;;;;;;2094267;28;20047;-71
2023/07/19 00:35:07;;;;;;;3.42;2.17;;;18.20;99.90;;;;;;2087498;28;20457;-71
2023/07/19 00:36:08;;;;;;;2.97;2.08;;;18.20;99.90;;;;;;2090456;28;20029;-71
2023/07/19 00:37:09;;;;;;;3.17;2.47;;;18.20;99.90;;;;;;2091052;28;20408;-71
2023/07/19 00:38:09;;;;;;;2.85;2.28;;;18.20;99.90;;;;;;2090868;28;20923;-71
2023/07/19 00:39:10;;;;;;;6.15;2.42;;;18.20;99.90;;;;;;2091810;28;20037;-71
2023/07/19 00:40:11;;;;;;;2.45;2.10;;;18.20;99.90;;;;;;2091294;28;20166;-71
2023/07/19 00:41:12;;;;;;;3.28;2.50;;;18.20;99.90;;;;;;2093133;28;20059;-71
2023/07/19 00:42:12;;;;;;;2.40;2.20;;;18.20;99.90;;;;;;2094455;28;20025;-71
2023/07/19 00:43:13;;;;;;;3.97;2.47;;;18.20;99.90;;;;;;2095408;28;20021;-71
2023/07/19 00:44:13;;;;;;;7.65;2.80;;;18.20;99.90;;;;;;2090541;28;20110;-71
2023/07/19 00:45:14;;;;;;;4.45;2.08;;;18.20;99.90;;;;;;2092716;28;20020;-71
2023/07/19 00:46:15;;;;;;;3.03;2.38;;;18.20;99.90;;;;;;2090610;28;21163;-71
2023/07/19 00:47:16;;;;;;;5.13;2.42;;;18.10;99.90;;;;;;2094148;28;20045;-71
2023/07/19 00:48:17;;;;;;;3.47;2.58;;;18.10;99.90;;;;;;2092360;28;20024;-71
2023/07/19 00:49:18;;;;;;;6.88;2.70;;;18.10;99.90;;;;;;2091732;28;20023;-71
2023/07/19 00:50:19;;;;;;;4.85;2.45;;;18.10;99.90;;;;;;2090730;28;20079;-71
2023/07/19 00:51:20;;;;;;;4.63;2.40;;;18.10;99.90;;;;;;2091336;28;20046;-71
2023/07/19 00:52:22;;;;;;;4.18;2.60;;;18.10;99.90;;;;;;2092503;28;20025;-71
2023/07/19 00:53:24;;;;;;;2.72;2.17;;;18.10;99.90;;;;;;2091937;28;20105;-71
2023/07/19 00:54:27;;;;;;;2.97;2.42;;;18.10;99.90;;;;;;2093363;28;20025;-71
2023/07/19 00:55:28;;;;;;;2.75;2.20;;;18.10;99.90;;;;;;2095531;28;20017;-71
2023/07/19 00:56:29;;;;;;;5.18;2.38;;;18.10;99.90;;;;;;2095628;28;20020;-71
2023/07/19 00:57:30;;;;;;;3.80;2.25;;;18.10;99.90;;;;;;2092589;28;20624;-71
2023/07/19 00:58:31;;;;;;;3.13;2.30;;;18.10;99.90;;;;;;2092252;28;20771;-71
2023/07/19 00:59:32;;;;;;;2.30;2.10;;;18.10;99.90;;;;;;2093717;28;20178;-71
2023/07/19 01:00:33;;;;;;;3.50;2.70;;;18.10;99.90;;;;;;2091347;28;20031;-71
2023/07/19 01:01:34;;;;;;;4.40;2.47;;;18.10;99.90;;;;;;2092603;28;20108;-71
2023/07/19 01:02:36;;;;;;;4.15;2.22;;;18.10;99.90;;;;;;2092303;28;20021;-71
2023/07/19 01:03:36;;;;;;;2.60;2.17;;;18.10;99.90;;;;;;2092380;28;20752;-71
2023/07/19 01:04:37;;;;;;;2.63;2.20;;;18.10;99.90;;;;;;2092138;28;20392;-71
2023/07/19 01:05:38;;;;;;;2.63;2.05;;;18.10;99.90;;;;;;2093352;28;20029;-71
2023/07/19 01:06:42;;;;;;;4.05;2.72;;;18.10;99.90;;;;;;2101014;28;20035;-71
2023/07/19 01:07:43;;;;;;;2.90;2.63;;;18.10;99.90;;;;;;2099999;28;20115;-71
2023/07/19 01:08:44;;;;;;;4.57;2.75;;;18.10;99.90;;;;;;2092811;28;20017;-71
2023/07/19 01:09:45;;;;;;;2.58;2.17;;;18.10;99.90;;;;;;2091965;28;20166;-71
2023/07/19 01:10:46;;;;;;;5.80;2.50;;;18.10;99.90;;;;;;2092407;28;20037;-71
2023/07/19 01:11:46;;;;;;;2.83;2.40;;;18.10;99.90;;;;;;2091134;28;20079;-71
2023/07/19 01:13:04;;;;;;;3.60;2.28;;;18.10;99.90;;;;;;2093724;28;20492;-71
2023/07/19 01:14:04;;;;;;;4.28;2.33;;;18.10;99.90;;;;;;2095014;28;20031;-71
2023/07/19 01:15:09;;;;;;;2.55;2.35;;;18.10;99.90;;;;;;2091980;28;20035;-71
2023/07/19 01:16:09;;;;;;;3.33;2.75;;;18.00;99.90;;;;;;2092573;28;20380;-71
2023/07/19 01:17:10;;;;;;;3.35;2.33;;;18.10;99.90;;;;;;2093208;28;20025;-71
2023/07/19 01:18:11;;;;;;;3.80;2.90;;;18.00;99.90;;;;;;2093488;28;20104;-71
2023/07/19 01:19:14;;;;;;;3.22;2.70;;;18.00;99.90;;;;;;2091607;28;20028;-71
2023/07/19 01:20:15;;;;;;;4.03;2.40;;;18.00;99.90;;;;;;2091007;28;20426;-71
2023/07/19 01:21:15;;;;;;;3.90;2.78;;;18.00;99.90;;;;;;2091497;28;20056;-71
2023/07/19 01:22:17;;;;;;;3.85;2.58;;;18.00;99.90;;;;;;2093042;28;20032;-71
2023/07/19 01:23:17;;;;;;;5.70;2.80;;;18.00;99.90;;;;;;2091912;28;20477;-71
2023/07/19 01:24:18;;;;;;;3.22;2.30;;;18.00;99.90;;;;;;2093569;28;20393;-71
2023/07/19 01:25:18;;;;;;;5.00;2.70;;;18.00;99.90;;;;;;2093403;28;20071;-71
2023/07/19 01:26:19;;;;;;;5.55;2.55;;;18.00;99.90;;;;;;2090793;28;20029;-71
2023/07/19 01:27:20;;;;;;;2.75;2.17;;;18.00;99.90;;;;;;2092626;28;20495;-71
2023/07/19 01:28:20;;;;;;;2.72;2.53;;;18.00;99.90;;;;;;2093047;28;20369;-71
2023/07/19 01:29:21;;;;;;;2.45;2.03;;;18.00;99.90;;;;;;2093505;28;20107;-71
2023/07/19 01:30:22;;;;;;;4.32;2.70;;;18.00;99.90;;;;;;2090558;28;20031;-71
2023/07/19 01:31:22;;;;;;;3.65;2.35;;;18.00;99.90;;;;;;2091979;28;20517;-71
2023/07/19 01:32:23;;;;;;;4.18;2.67;;;18.00;99.90;;;;;;2091291;28;20024;-71
2023/07/19 01:33:23;;;;;;;4.15;2.63;;;18.00;99.90;;;;;;2093388;28;20016;-71
2023/07/19 01:34:24;;;;;;;3.05;2.40;;;18.00;99.90;;;;;;2093471;28;20127;-71
2023/07/19 01:35:25;;;;;;;4.65;2.67;;;18.00;99.90;;;;;;2091273;28;20093;-71
2023/07/19 01:36:26;;;;;;;4.70;2.20;;;18.00;99.90;;;;;;2091146;28;20131;-71
2023/07/19 01:37:29;;;;;;;4.20;2.55;;;18.10;99.90;;;;;;2093212;28;20099;-71
2023/07/19 01:38:30;;;;;;;3.35;2.30;;;18.00;99.90;;;;;;2094301;28;20508;-71
2023/07/19 01:39:30;;;;;;;2.70;2.38;;;18.00;99.90;;;;;;2090883;28;20415;-71
2023/07/19 01:40:31;;;;;;;3.22;2.22;;;18.00;99.90;;;;;;2091483;28;20066;-71
2023/07/19 01:41:31;;;;;;;2.40;1.90;;;18.00;99.90;;;;;;2092151;28;20094;-71
2023/07/19 01:42:32;;;;;;;2.92;2.03;;;18.00;99.90;;;;;;2092388;28;20071;-71
2023/07/19 01:43:34;;;;;;;2.20;2.00;;;18.00;99.90;;;;;;2092425;28;20044;-71
2023/07/19 01:44:35;;;;;;;2.67;2.40;;;18.00;99.90;;;;;;2095586;28;20028;-71
2023/07/19 01:45:35;;;;;;;5.18;2.47;;;18.00;99.90;;;;;;2093672;28;20086;-71
2023/07/19 01:46:38;;;;;;;4.75;2.70;;;18.00;99.90;;;;;;2091624;28;20031;-71
2023/07/19 01:47:39;;;;;;;3.15;2.13;;;18.00;99.90;;;;;;2090533;28;20722;-71
2023/07/19 01:48:39;;;;;;;4.72;2.35;;;18.00;99.90;;;;;;2092830;28;20451;-71
2023/07/19 01:49:40;;;;;;;2.50;2.30;;;18.00;99.90;;;;;;2093277;28;20082;-71
2023/07/19 01:50:44;;;;;;;2.45;1.98;;;18.00;99.90;;;;;;2090597;28;20029;-71
2023/07/19 01:51:45;;;;;;;4.45;2.53;;;18.00;99.90;;;;;;2090822;28;20058;-71
2023/07/19 01:52:45;;;;;;;5.15;2.40;;;18.00;99.90;;;;;;2092751;28;20036;-71
2023/07/19 01:53:46;;;;;;;2.97;2.08;;;18.00;99.90;;;;;;2090840;28;20040;-71
2023/07/19 01:54:46;;;;;;;2.92;2.28;;;18.00;99.90;;;;;;2094471;28;20031;-71
2023/07/19 01:55:47;;;;;;;4.55;2.58;;;17.90;99.90;;;;;;2090475;28;20443;-71
2023/07/19 01:56:48;;;;;;;2.90;2.60;;;18.00;99.90;;;;;;2095056;28;20033;-71
2023/07/19 01:57:48;;;;;;;3.50;2.10;;;18.00;99.90;;;;;;2095573;28;20035;-71
2023/07/19 01:58:49;;;;;;;4.00;2.40;;;17.90;99.90;;;;;;2090806;28;20017;-71
2023/07/19 01:59:49;;;;;;;2.67;2.40;;;17.90;99.90;;;;;;2089341;28;20029;-71
2023/07/19 02:00:53;;;;;;;2.95;2.60;;;17.90;99.90;;;;;;2092614;28;20021;-71
2023/07/19 02:01:53;;;;;;;3.78;2.17;;;17.90;99.90;;;;;;2092446;28;20016;-71
2023/07/19 02:02:54;;;;;;;2.45;1.98;;;17.90;99.90;;;;;;2093119;28;20029;-71
2023/07/19 02:03:54;;;;;;;5.55;2.35;;;17.90;99.90;;;;;;2092380;28;20449;-71
2023/07/19 02:04:55;;;;;;;2.40;2.20;;;17.80;99.90;;;;;;2091571;28;20033;-71
2023/07/19 02:06:00;;;;;;;2.28;2.08;;;17.80;99.90;;;;;;2091234;28;20035;-71
2023/07/19 02:07:00;;;;;;;4.70;2.40;;;17.80;99.90;;;;;;2091665;28;20029;-71
2023/07/19 02:08:03;;;;;;;3.53;2.42;;;17.80;99.90;;;;;;2092492;28;20040;-71
2023/07/19 02:09:03;;;;;;;3.42;2.40;;;17.80;99.90;;;;;;2091078;28;20521;-71
2023/07/19 02:10:04;;;;;;;3.15;2.20;;;17.80;99.90;;;;;;2095463;28;20028;-71
2023/07/19 02:11:05;;;;;;;4.88;2.10;;;17.80;99.90;;;;;;2085484;28;20523;-71
2023/07/19 02:12:06;;;;;;;2.95;2.65;;;17.80;99.90;;;;;;2084103;28;20416;-71
2023/07/19 02:13:07;;;;;;;2.47;2.22;;;17.80;99.90;;;;;;2090407;28;20111;-72
2023/07/19 02:14:08;;;;;;;3.42;2.28;;;17.70;99.90;;;;;;2091039;28;20020;-72
2023/07/19 02:15:09;;;;;;;3.00;2.10;;;17.70;99.90;;;;;;2092898;28;20058;-71
2023/07/19 02:16:10;;;;;;;2.30;2.10;;;17.70;99.90;;;;;;2091514;28;20032;-71
2023/07/19 02:17:10;;;;;;;6.35;2.53;;;17.70;99.90;;;;;;2093010;28;20027;-71
2023/07/19 02:18:11;;;;;;;3.00;2.63;;;17.70;99.90;;;;;;2094028;28;20024;-71
2023/07/19 02:19:12;;;;;;;3.88;2.40;;;17.70;99.90;;;;;;2093101;28;20040;-71
2023/07/19 02:20:13;;;;;;;3.15;2.33;;;17.70;99.90;;;;;;2089098;28;20071;-71
2023/07/19 02:21:14;;;;;;;3.70;2.72;;;17.60;99.90;;;;;;2096039;28;20051;-71
2023/07/19 02:22:18;;;;;;;2.72;2.38;;;17.60;99.90;;;;;;2087166;28;20114;-71
2023/07/19 02:23:18;;;;;;;2.60;2.40;;;17.60;99.90;;;;;;2092487;28;20112;-71
2023/07/19 02:24:19;;;;;;;3.15;2.13;;;17.60;99.90;;;;;;2093405;28;20035;-71
2023/07/19 02:25:19;;;;;;;2.33;2.13;;;17.60;99.90;;;;;;2092680;28;20104;-71
2023/07/19 02:26:20;;;;;;;3.95;2.75;;;17.60;99.90;;;;;;2092188;28;20041;-71
2023/07/19 02:27:21;;;;;;;4.55;2.70;;;17.60;99.90;;;;;;2090500;28;20051;-71
2023/07/19 02:28:21;;;;;;;3.58;2.08;;;17.60;99.90;;;;;;2092808;28;20525;-71
2023/07/19 02:29:22;;;;;;;3.35;2.30;;;17.60;99.90;;;;;;2094259;28;20028;-71
2023/07/19 02:30:22;;;;;;;2.47;2.00;;;17.50;99.90;;;;;;2091339;28;20481;-71
2023/07/19 02:31:23;;;;;;;3.55;2.53;;;17.50;99.90;;;;;;2091673;28;20074;-72
2023/07/19 02:32:24;;;;;;;4.47;2.55;;;17.50;99.90;;;;;;2092605;28;20056;-71
2023/07/19 02:33:24;;;;;;;2.83;2.35;;;17.50;99.90;;;;;;2092265;28;20044;-71
2023/07/19 02:34:25;;;;;;;3.50;2.65;;;17.50;99.90;;;;;;2092538;28;20562;-71
2023/07/19 02:35:28;;;;;;;4.15;2.50;;;17.40;99.90;;;;;;2092855;28;20029;-71
2023/07/19 02:36:29;;;;;;;4.82;3.10;;;17.40;99.90;;;;;;2091615;28;20776;-71
2023/07/19 02:37:29;;;;;;;3.28;2.45;;;17.40;99.90;;;;;;2092559;28;20033;-71
2023/07/19 02:38:30;;;;;;;6.40;2.60;;;17.40;99.90;;;;;;2091945;28;20051;-71
2023/07/19 02:39:31;;;;;;;2.80;2.53;;;17.40;99.90;;;;;;2090152;28;20031;-71
2023/07/19 02:40:31;;;;;;;2.78;2.45;;;17.40;99.90;;;;;;2089683;28;20024;-71
2023/07/19 02:41:32;;;;;;;3.17;2.42;;;17.40;99.90;;;;;;2091585;28;20493;-71
2023/07/19 02:42:32;;;;;;;3.75;2.45;;;17.40;99.90;;;;;;2093194;28;20016;-71
2023/07/19 02:43:33;;;;;;;2.50;2.30;;;17.30;99.90;;;;;;2093011;28;20024;-71
2023/07/19 02:44:33;;;;;;;3.40;2.35;;;17.30;99.90;;;;;;2092724;28;20027;-71
2023/07/19 02:45:35;;;;;;;2.53;2.22;;;17.30;99.90;;;;;;2091831;28;20095;-71
2023/07/19 02:46:35;;;;;;;2.60;2.20;;;17.30;99.90;;;;;;2092997;28;20656;-71
2023/07/19 02:47:36;;;;;;;4.07;2.40;;;17.30;99.90;;;;;;2091727;28;20047;-71
2023/07/19 02:48:36;;;;;;;3.53;2.78;;;17.30;99.90;;;;;;2092805;28;20021;-71
2023/07/19 02:49:37;;;;;;;3.22;2.40;;;17.30;99.90;;;;;;2094120;28;20032;-71
2023/07/19 02:50:43;;;;;;;3.42;2.50;;;17.30;99.90;;;;;;2088344;28;20032;-71
2023/07/19 02:51:43;;;;;;;4.30;2.80;;;17.30;99.90;;;;;;2093731;28;20464;-71
2023/07/19 02:52:44;;;;;;;3.50;2.22;;;17.20;99.90;;;;;;2092639;28;20020;-71
2023/07/19 02:53:44;;;;;;;2.88;2.45;;;17.30;99.90;;;;;;2090191;28;20048;-71
2023/07/19 02:54:45;;;;;;;3.13;2.78;;;17.20;99.90;;;;;;2092662;28;20055;-71
2023/07/19 02:55:46;;;;;;;3.63;2.55;;;17.20;99.90;;;;;;2090980;28;20475;-71
2023/07/19 02:56:46;;;;;;;5.03;2.10;;;17.20;99.90;;;;;;2092115;28;20029;-71
2023/07/19 02:57:47;;;;;;;3.55;2.50;;;17.20;99.90;;;;;;2092020;28;20028;-71
2023/07/19 02:58:47;;;;;;;2.70;2.15;;;17.20;99.90;;;;;;2090423;28;20643;-71
2023/07/19 02:59:48;;;;;;;3.45;2.47;;;17.20;99.90;;;;;;2091155;28;20021;-71
2023/07/19 03:00:49;;;;;;;3.05;2.38;;;17.20;99.90;;;;;;2089723;28;20024;-71
2023/07/19 03:01:49;;;;;;;5.30;2.42;;;17.20;99.90;;;;;;2091513;28;20370;-71
2023/07/19 03:02:53;;;;;;;2.97;2.53;;;17.20;99.90;;;;;;2091367;28;20025;-71
2023/07/19 03:03:54;;;;;;;2.72;2.20;;;17.20;99.90;;;;;;2094732;28;20031;-71
2023/07/19 03:04:55;;;;;;;4.30;2.50;;;17.20;99.90;;;;;;2094477;28;20103;-71
2023/07/19 03:05:56;;;;;;;3.35;2.30;;;17.20;99.90;;;;;;2092267;28;20127;-71
2023/07/19 03:06:57;;;;;;;3.08;2.58;;;17.20;99.90;;;;;;2090472;28;20476;-71
2023/07/19 03:07:58;;;;;;;3.10;2.58;;;17.20;99.90;;;;;;2091924;28;20016;-71
2023/07/19 03:08:58;;;;;;;3.25;2.42;;;17.20;99.90;;;;;;2090326;28;20036;-71
2023/07/19 03:10:00;;;;;;;2.95;2.08;;;17.20;99.90;;;;;;2090536;28;20039;-71
2023/07/19 03:11:00;;;;;;;3.03;2.03;;;17.20;99.90;;;;;;2092783;28;20055;-71
2023/07/19 03:12:01;;;;;;;3.40;2.45;;;17.20;99.90;;;;;;2091113;28;20044;-71
2023/07/19 03:13:01;;;;;;;3.40;2.50;;;17.20;99.90;;;;;;2092399;28;20503;-71
2023/07/19 03:14:02;;;;;;;3.40;2.50;;;17.20;99.90;;;;;;2092473;28;20425;-71
2023/07/19 03:15:03;;;;;;;3.38;2.78;;;17.20;99.90;;;;;;2092489;28;20033;-71
2023/07/19 03:16:05;;;;;;;4.20;2.60;;;17.20;99.90;;;;;;2092374;28;20812;-71
2023/07/19 03:17:05;;;;;;;4.20;2.92;;;17.20;99.90;;;;;;2093071;28;20028;-71
2023/07/19 03:18:07;;;;;;;2.55;2.35;;;17.20;99.90;;;;;;2090952;28;20032;-71
2023/07/19 03:19:08;;;;;;;3.42;2.85;;;17.10;99.90;;;;;;2091094;28;20719;-71
2023/07/19 03:20:10;;;;;;;3.70;3.20;;;17.10;99.90;;;;;;2091318;28;20025;-71
2023/07/19 03:21:10;;;;;;;5.97;2.80;;;17.20;99.90;;;;;;2092659;28;20107;-71
2023/07/19 03:22:11;;;;;;;4.78;3.45;;;17.10;99.90;;;;;;2089957;28;20055;-71
2023/07/19 03:23:12;;;;;;;3.65;3.03;;;17.10;99.90;;;;;;2091280;28;20021;-71
2023/07/19 03:24:12;;;;;;;5.03;3.50;;;17.10;99.90;;;;;;2090667;28;20027;-71
2023/07/19 03:25:13;;;;;;;6.38;3.25;;;17.10;99.90;;;;;;2090729;28;20067;-71
2023/07/19 03:26:13;;;;;;;5.43;2.92;;;17.10;99.90;;;;;;2090091;28;20021;-71
2023/07/19 03:27:14;;;;;;;5.00;3.08;;;17.10;99.90;;;;;;2090516;28;20032;-71
2023/07/19 03:28:15;;;;;;;6.50;3.30;;;17.10;99.90;;;;;;2090936;28;20043;-71
2023/07/19 03:29:15;;;;;;;5.00;3.13;;;17.10;99.90;;;;;;2091553;28;20024;-71
2023/07/19 03:30:16;;;;;;;4.60;3.03;;;17.10;99.90;;;;;;2091856;28;20024;-71
2023/07/19 03:31:16;;;;;;;4.28;2.65;;;17.10;99.90;;;;;;2083571;28;20451;-71
2023/07/19 03:32:17;;;;;;;4.88;3.33;;;17.10;99.90;;;;;;2091274;28;20500;-71
2023/07/19 03:33:18;;;;;;;4.88;3.17;;;17.10;99.90;;;;;;2091889;28;20021;-71
2023/07/19 03:34:18;;;;;;;3.60;2.85;;;17.10;99.90;;;;;;2091461;28;20024;-71
2023/07/19 03:35:19;;;;;;;5.00;3.55;;;17.10;99.90;;;;;;2089411;28;20029;-71
2023/07/19 03:36:19;;;;;;;3.33;3.03;;;17.10;99.90;;;;;;2095512;28;20025;-71
2023/07/19 03:37:20;;;;;;;5.07;3.08;;;17.10;99.90;;;;;;2094836;28;20103;-71
2023/07/19 03:38:21;;;;;;;6.50;3.15;;;17.10;99.90;;;;;;2089843;28;20491;-71
2023/07/19 03:39:21;;;;;;;4.30;3.03;;;17.10;99.90;;;;;;2091591;28;20025;-71
2023/07/19 03:40:22;;;;;;;2.72;2.50;;;17.00;99.90;;;;;;2090371;28;20017;-71
2023/07/19 03:41:23;;;;;;;3.63;3.22;;;17.00;99.90;;;;;;2090905;28;20526;-71
2023/07/19 03:42:24;;;;;;;4.07;2.60;;;17.00;99.90;;;;;;2090525;28;20033;-71
2023/07/19 03:43:24;;;;;;;3.95;2.55;;;17.10;99.90;;;;;;2091162;28;20024;-71
2023/07/19 03:44:25;;;;;;;5.55;2.90;;;17.00;99.90;;;;;;2092308;28;20703;-71
2023/07/19 03:45:28;;;;;;;3.63;3.28;;;17.10;99.90;;;;;;2091718;28;20016;-71
2023/07/19 03:46:28;;;;;;;3.92;3.40;;;17.00;99.90;;;;;;2089386;28;20016;-71
2023/07/19 03:47:29;;;;;;;3.80;2.95;;;17.00;99.90;;;;;;2090721;28;20124;-71
2023/07/19 03:48:29;;;;;;;5.18;3.00;;;17.00;99.90;;;;;;2093157;28;20024;-71
2023/07/19 03:49:30;;;;;;;3.28;2.83;;;17.00;99.90;;;;;;2091225;28;20052;-71
2023/07/19 03:50:30;;;;;;;3.78;2.88;;;17.00;99.90;;;;;;2091078;28;20079;-71
2023/07/19 03:51:31;;;;;;;3.28;2.50;;;17.00;99.90;;;;;;2094030;28;20108;-71
2023/07/19 03:52:32;;;;;;;3.90;2.83;;;17.00;99.90;;;;;;2091448;28;20043;-71
2023/07/19 03:53:32;;;;;;;3.38;2.95;;;17.00;99.90;;;;;;2092700;28;20408;-71
2023/07/19 03:54:33;;;;;;;3.60;3.13;;;17.00;99.90;;;;;;2093973;28;20036;-71
2023/07/19 03:55:34;;;;;;;3.83;3.08;;;17.10;99.90;;;;;;2093397;28;20099;-71
2023/07/19 03:56:35;;;;;;;3.28;2.97;;;17.00;99.90;;;;;;2091514;28;20021;-71
2023/07/19 03:57:35;;;;;;;3.67;2.90;;;17.10;99.90;;;;;;2090931;28;20032;-71
2023/07/19 03:58:38;;;;;;;4.63;2.75;;;17.10;99.90;;;;;;2091837;28;20025;-71
2023/07/19 03:59:39;;;;;;;3.53;2.53;;;17.00;99.90;;;;;;2094372;28;20048;-71
2023/07/19 04:00:39;;;;;;;3.22;2.53;;;17.00;99.90;;;;;;2092100;28;20017;-71
2023/07/19 04:01:40;;;;;;;3.10;2.80;;;17.00;99.90;;;;;;2091588;28;20385;-71
2023/07/19 04:02:41;;;;;;;3.15;2.72;;;17.10;99.90;;;;;;2091794;28;20098;-71
2023/07/19 04:03:41;;;;;;;3.20;2.90;;;17.10;99.90;;;;;;2091742;28;20525;-71
2023/07/19 04:04:42;;;;;;;3.80;2.95;;;17.10;99.90;;;;;;2090976;28;20032;-71
2023/07/19 04:05:42;;;;;;;4.50;2.67;;;17.10;99.90;;;;;;2093473;28;20071;-71
2023/07/19 04:06:43;;;;;;;4.20;3.10;;;17.10;99.90;;;;;;2092756;28;20401;-71
2023/07/19 04:07:44;;;;;;;3.42;2.92;;;17.10;99.90;;;;;;2091936;28;20070;-71
2023/07/19 04:08:44;;;;;;;3.28;2.90;;;17.10;99.90;;;;;;2095867;28;20048;-71
2023/07/19 04:09:45;;;;;;;5.45;3.47;;;17.10;99.90;;;;;;2093202;28;20107;-71
2023/07/19 04:10:45;;;;;;;4.20;3.03;;;17.10;99.90;;;;;;2094183;28;20024;-71
2023/07/19 04:11:46;;;;;;;3.90;3.25;;;17.10;99.90;;;;;;2092496;28;20032;-71
2023/07/19 04:12:46;;;;;;;5.28;3.47;;;17.20;99.90;;;;;;2090992;28;20077;-71
2023/07/19 04:13:47;;;;;;;4.28;3.13;;;17.10;99.90;;;;;;2091794;28;20036;-71
2023/07/19 04:14:48;;;;;;;4.18;3.17;;;17.20;99.90;;;;;;2093007;28;20099;-71
2023/07/19 04:15:49;;;;;;;5.32;3.17;;;17.20;99.90;;;;;;2093832;28;20496;-71
2023/07/19 04:16:49;;;;;;;5.15;3.15;;;17.20;99.90;;;;;;2092730;28;20104;-71
2023/07/19 04:17:50;;;;;;;4.13;3.33;;;17.20;99.90;;;;;;2093169;28;20029;-71
2023/07/19 04:18:50;;;;;;;4.03;3.25;;;17.20;99.90;;;;;;2092316;28;20039;-71
2023/07/19 04:19:51;;;;;;;4.28;3.42;;;17.20;99.90;;;;;;2092972;28;20517;-71
2023/07/19 04:20:58;;;;;;;3.97;2.92;;;17.20;99.90;;;;;;2092425;28;20052;-71
2023/07/19 04:21:59;;;;;;;5.18;3.20;;;17.20;99.90;;;;;;2090836;28;20036;-71
2023/07/19 04:22:59;;;;;;;3.42;3.13;;;17.20;99.90;;;;;;2093675;28;20027;-71
2023/07/19 04:24:00;;;;;;;3.67;3.03;;;17.20;99.90;;;;;;2093136;28;20959;-71
2023/07/19 04:25:01;;;;;;;5.45;2.88;;;17.30;99.90;;;;;;2092978;28;20116;-71
2023/07/19 04:26:02;;;;;;;4.18;3.08;;;17.30;99.90;;;;;;2092186;28;20036;-71
2023/07/19 04:27:03;;;;;;;4.43;3.20;;;17.30;99.90;;;;;;2090976;28;20056;-71
2023/07/19 04:28:03;;;;;;;4.43;2.90;;;17.30;99.90;;;;;;2092834;28;20114;-71
2023/07/19 04:29:04;;;;;;;6.57;3.72;;;17.30;99.90;;;;;;2091670;28;20455;-71
2023/07/19 04:30:05;;;;;;;4.38;3.38;;;17.40;99.90;;;;;;2091841;28;20522;-71
2023/07/19 04:31:06;;;;;;;4.55;3.40;;;17.40;99.90;;;;;;2092727;28;20445;-71
2023/07/19 04:32:07;;;;;;;4.30;3.47;;;17.40;99.90;;;;;;2091294;28;20028;-71
2023/07/19 04:33:08;;;;;;;4.68;3.10;;;17.40;99.90;;;;;;2092953;28;20064;-71
2023/07/19 04:34:10;;;;;;;4.38;3.20;;;17.40;99.90;;;;;;2091090;28;20096;-71
2023/07/19 04:35:11;;;;;;;5.82;3.70;;;17.40;99.90;;;;;;2092954;28;20439;-71
2023/07/19 04:36:15;;;;;;;6.22;3.40;;;17.50;99.90;;;;;;2091653;28;20029;-71
2023/07/19 04:37:16;;;;;;;6.28;3.65;;;17.50;99.90;;;;;;2092191;28;20021;-71
2023/07/19 04:38:16;;;;;;;7.30;3.95;;;17.50;99.90;;;;;;2093279;28;20473;-71
2023/07/19 04:39:17;;;;;;;7.03;4.20;;;17.50;99.90;;;;;;2093386;28;20020;-71
2023/07/19 04:40:18;;;;;;;5.18;3.58;;;17.50;99.90;;;;;;2093504;28;20037;-71
2023/07/19 04:41:18;;;;;;;5.93;3.83;;;17.60;99.90;;;;;;2094760;28;20025;-71
2023/07/19 04:42:22;;;;;;;4.50;3.58;;;17.60;99.90;;;;;;2092854;28;20031;-71
2023/07/19 04:43:22;;;;;;;5.35;3.60;;;17.60;99.90;;;;;;2091738;28;20012;-71
2023/07/19 04:44:23;;;;;;;7.18;4.20;;;17.60;99.90;;;;;;2092179;28;20055;-71
2023/07/19 04:45:24;;;;;;;5.70;3.47;;;17.70;99.90;;;;;;2092029;28;20490;-71
2023/07/19 04:46:25;;;;;;;6.40;3.72;;;17.70;99.90;;;;;;2091933;28;20103;-71
2023/07/19 04:47:25;;;;;;;6.53;4.05;;;17.70;99.90;;;;;;2093319;28;20025;-71
2023/07/19 04:48:26;;;;;;;5.05;3.80;;;17.70;99.90;;;;;;2094890;28;20075;-71
2023/07/19 04:49:26;;;;;;;5.70;3.80;;;17.80;99.90;;;;;;2096539;28;20039;-71
2023/07/19 04:50:27;;;;;;;5.00;3.45;;;17.80;99.90;;;;;;2091601;28;20825;-71
2023/07/19 04:51:28;;;;;;;6.03;3.88;;;17.80;99.90;;;;;;2092854;28;20495;-71
2023/07/19 04:52:28;;;;;;;9.27;4.18;;;17.90;99.90;;;;;;2093348;28;20853;-71
2023/07/19 04:53:29;;;;;;;4.38;3.67;;;17.90;99.90;;;;;;2094848;28;20025;-71
2023/07/19 04:54:29;;;;;;;8.90;4.25;;;17.90;99.90;;;;;;2095263;28;20051;-71
2023/07/19 04:55:30;;;;;;;5.30;3.83;;;17.90;99.90;;;;;;2092524;28;20071;-71
2023/07/19 04:56:31;;;;;;;6.32;3.92;;;17.90;99.90;;;;;;2092074;28;20013;-71
2023/07/19 04:57:32;;;;;;;4.10;3.28;;;18.00;99.90;;;;;;2091921;28;20063;-71
2023/07/19 04:58:32;;;;;;;7.10;3.30;;;18.00;99.90;;;;;;2093427;28;20028;-71
2023/07/19 04:59:33;;;;;;;4.50;3.20;;;18.10;99.90;;;;;;2091798;28;20020;-71
2023/07/19 05:00:33;;;;;;;4.28;3.53;;;18.10;99.90;;;;;;2091757;28;20036;-71
2023/07/19 05:01:34;;;;;;;6.43;3.58;;;18.10;99.90;;;;;;2091657;28;20020;-71
2023/07/19 05:02:36;;;;;;;7.50;3.63;;;18.10;99.90;;;;;;2093023;28;20017;-71
2023/07/19 05:03:37;;;;;;;5.57;3.08;;;18.20;99.90;;;;;;2091115;28;20021;-71
2023/07/19 05:04:37;;;;;;;5.60;3.42;;;18.20;99.90;;;;;;2091431;28;20049;-71
2023/07/19 05:05:39;;;;;;;6.18;3.35;;;18.20;99.90;;;;;;2090779;28;20132;-71
2023/07/19 05:06:39;;;;;;;4.70;3.40;;;18.20;99.90;;;;;;2089733;28;20040;-72
2023/07/19 05:07:40;;;;;;;4.70;3.35;;;18.30;99.90;;;;;;2092985;28;20025;-72
2023/07/19 05:08:41;;;;;;;3.08;2.78;;;18.30;99.90;;;;;;2092059;28;20060;-72
2023/07/19 05:09:42;;;;;;;6.82;3.53;;;18.30;99.90;;;;;;2092613;28;20024;-72
2023/07/19 05:10:43;;;;;;;6.70;3.40;;;18.30;99.90;;;;;;2092473;28;20029;-71
2023/07/19 05:11:44;;;;;;;4.82;2.65;;;18.40;99.90;;;;;;2094245;28;20024;-71
2023/07/19 05:12:44;;;;;;;6.88;3.40;;;18.40;99.90;;;;;;2093124;28;20021;-71
2023/07/19 05:13:45;;;;;;;5.32;3.53;;;18.40;99.90;;;;;;2092618;28;20106;-71
2023/07/19 05:14:46;;;;;;;5.13;3.15;;;18.40;99.90;;;;;;2092796;28;20067;-71
2023/07/19 05:15:46;;;;;;;6.97;3.40;;;18.50;99.90;;;;;;2093839;28;20400;-71
2023/07/19 05:16:47;;;;;;;4.72;3.03;;;18.50;99.90;;;;;;2092283;28;20029;-71
2023/07/19 05:17:47;;;;;;;5.63;2.85;;;18.50;99.90;;;;;;2092056;28;20028;-71